Time;durP1;ratioP1;P1;durP2;ratioP2;P2;SDS_P1;SDS_P2;PMS_P1;PMS_P2;Temp;Humidity;BMP_temperature;BMP_pressure;BME280_temperature;BME280_humidity;BME280_pressure;Samples;Min_cycle;Max_cycle;Signal;HPM_P1;HPM_P2
2020/12/13 00:00:32;;;;;;;173.55;54.65;;;;;;;7.01;100.00;100043.28;4949086;28;20137;-86
2020/12/13 00:02:58;;;;;;;170.77;56.17;;;;;;;7.01;100.00;100043.28;4921528;29;20047;-86
2020/12/13 00:05:23;;;;;;;180.32;57.80;;;;;;;7.00;100.00;100035.44;4975408;28;20050;-86
2020/12/13 00:07:49;;;;;;;182.43;54.97;;;;;;;6.99;100.00;100044.44;5053196;28;20186;-86
2020/12/13 00:10:16;;;;;;;168.80;54.92;;;;;;;6.99;100.00;100045.28;5034030;28;20032;-85
2020/12/13 00:12:41;;;;;;;169.15;56.28;;;;;;;6.99;100.00;100057.75;5029681;28;20044;-86
2020/12/13 00:15:07;;;;;;;166.40;50.58;;;;;;;6.98;100.00;100059.59;5034385;28;20041;-86
2020/12/13 00:17:32;;;;;;;160.75;52.25;;;;;;;6.98;100.00;100054.25;5044273;28;20496;-86
2020/12/13 00:19:58;;;;;;;149.30;53.33;;;;;;;6.99;100.00;100055.97;5047701;28;20072;-85
2020/12/13 00:22:24;;;;;;;152.40;52.65;;;;;;;6.99;100.00;100060.44;5047669;28;20049;-86
2020/12/13 00:24:49;;;;;;;148.38;48.10;;;;;;;6.98;100.00;100064.09;5043007;28;20029;-86
2020/12/13 00:27:15;;;;;;;155.00;55.95;;;;;;;6.98;100.00;100059.59;5049026;28;20048;-86
2020/12/13 00:29:43;;;;;;;141.48;48.20;;;;;;;6.97;100.00;100065.09;5044321;28;20120;-85
2020/12/13 00:32:09;;;;;;;133.25;44.05;;;;;;;6.96;100.00;100066.94;5034253;28;20036;-86
2020/12/13 00:34:34;;;;;;;138.70;46.88;;;;;;;6.94;100.00;100063.59;5055120;28;20505;-86
2020/12/13 00:37:00;;;;;;;126.88;47.75;;;;;;;6.93;100.00;100056.59;5031825;28;20045;-86
2020/12/13 00:39:27;;;;;;;120.63;41.67;;;;;;;6.92;100.00;100072.75;5048846;28;20045;-85
2020/12/13 00:41:53;;;;;;;110.53;41.42;;;;;;;6.92;100.00;100072.75;5046816;28;20040;-85
2020/12/13 00:44:19;;;;;;;113.40;41.33;;;;;;;6.90;100.00;100075.56;5028418;28;20405;-86
2020/12/13 00:46:46;;;;;;;102.93;39.05;;;;;;;6.90;100.00;100078.22;5041438;28;20041;-85
2020/12/13 00:49:12;;;;;;;111.40;39.35;;;;;;;6.89;100.00;100092.56;5047159;28;20038;-85
2020/12/13 00:51:37;;;;;;;90.93;36.97;;;;;;;6.89;100.00;100103.22;5049160;28;20690;-86
2020/12/13 00:54:03;;;;;;;108.57;39.47;;;;;;;6.88;100.00;100090.91;5032634;28;20522;-86
2020/12/13 00:56:28;;;;;;;99.63;39.22;;;;;;;6.88;100.00;100104.25;5041929;28;20037;-85
2020/12/13 00:58:54;;;;;;;102.00;37.15;;;;;;;6.87;100.00;100109.72;5046241;28;20064;-85
2020/12/13 01:01:20;;;;;;;105.75;39.33;;;;;;;6.87;100.00;100109.72;5047068;28;20045;-85
2020/12/13 01:03:45;;;;;;;101.85;38.10;;;;;;;6.85;100.00;100106.34;5039799;28;20037;-86
2020/12/13 01:06:10;;;;;;;96.68;38.53;;;;;;;6.84;100.00;100121.53;5047782;28;20059;-86
2020/12/13 01:08:36;;;;;;;93.68;36.70;;;;;;;6.83;100.00;100127.88;5037952;28;20063;-86
2020/12/13 01:11:01;;;;;;;100.18;40.10;;;;;;;6.83;100.00;100135.88;5049944;28;20068;-86
2020/12/13 01:13:26;;;;;;;89.50;36.42;;;;;;;6.82;100.00;100149.34;5058283;28;20045;-86
2020/12/13 01:15:53;;;;;;;91.18;35.00;;;;;;;6.81;100.00;100145.84;5005242;28;20029;-85
2020/12/13 01:18:19;;;;;;;91.40;37.53;;;;;;;6.81;100.00;100159.19;5023247;28;23109;-86
2020/12/13 01:20:45;;;;;;;91.63;33.05;;;;;;;6.79;100.00;100155.84;5055504;28;20544;-85
2020/12/13 01:23:10;;;;;;;77.53;32.67;;;;;;;6.79;100.00;100161.19;5041949;28;20041;-85
2020/12/13 01:25:35;;;;;;;84.65;36.03;;;;;;;6.79;100.00;100166.53;5044143;28;20080;-85
2020/12/13 01:28:01;;;;;;;91.75;36.22;;;;;;;6.77;100.00;100164.00;5031908;28;20070;-86
2020/12/13 01:30:26;;;;;;;93.18;36.58;;;;;;;6.76;100.00;100166.81;5041508;28;20580;-86
2020/12/13 01:32:52;;;;;;;84.78;36.08;;;;;;;6.75;100.00;100165.13;5038159;28;20125;-86
2020/12/13 01:35:17;;;;;;;83.22;31.73;;;;;;;6.72;100.00;100163.63;5047894;28;20374;-86
2020/12/13 01:37:42;;;;;;;80.78;36.25;;;;;;;6.74;100.00;100166.13;5033380;28;20124;-86
2020/12/13 01:40:08;;;;;;;77.95;32.05;;;;;;;6.71;100.00;100163.78;5055551;28;20074;-86
2020/12/13 01:42:42;;;;;;;80.90;35.33;;;;;;;6.71;100.00;100169.13;5046490;28;20103;-86
2020/12/13 01:45:09;;;;;;;73.72;26.55;;;;;;;6.68;100.00;100175.59;5047161;28;20037;-86
2020/12/13 01:47:35;;;;;;;74.55;28.73;;;;;;;6.67;100.00;100175.72;5050010;28;20140;-85
2020/12/13 01:50:01;;;;;;;73.60;29.88;;;;;;;6.66;100.00;100187.41;5054327;28;20028;-86
2020/12/13 01:52:46;;;;;;;65.75;27.80;;;;;;;6.64;100.00;100184.88;5030180;28;20034;-86
2020/12/13 01:55:17;;;;;;;78.22;30.08;;;;;;;6.63;100.00;100187.72;5048946;28;20102;-86
2020/12/13 01:57:45;;;;;;;70.18;27.23;;;;;;;6.60;100.00;100182.69;5046644;28;20044;-86
2020/12/13 02:00:14;;;;;;;69.03;26.77;;;;;;;6.57;100.00;100183.81;5017054;28;20489;-85
2020/12/13 02:02:56;;;;;;;70.25;31.48;;;;;;;6.58;100.00;100182.00;5047668;28;20041;-86
2020/12/13 02:05:22;;;;;;;81.80;32.28;;;;;;;6.52;100.00;100188.78;5046686;28;20033;-86
2020/12/13 02:07:51;;;;;;;90.72;33.50;;;;;;;6.44;100.00;100194.03;5020040;28;20037;-86
2020/12/13 02:10:17;;;;;;;86.57;33.40;;;;;;;6.40;100.00;100195.31;5055429;28;20044;-85
2020/12/13 02:12:42;;;;;;;89.90;32.20;;;;;;;6.33;100.00;100198.59;5044213;28;20371;-86
2020/12/13 02:15:09;;;;;;;91.45;33.60;;;;;;;6.30;100.00;100198.91;5050223;28;20045;-86
2020/12/13 02:17:36;;;;;;;104.07;35.95;;;;;;;6.30;100.00;100203.38;5032674;28;20468;-86
2020/12/13 02:20:10;;;;;;;110.35;34.85;;;;;;;6.26;100.00;100202.84;5047125;28;20033;-86
2020/12/13 02:22:47;;;;;;;104.82;34.17;;;;;;;6.22;100.00;100206.81;5005214;28;20576;-86
2020/12/13 02:25:19;;;;;;;100.75;34.78;;;;;;;6.21;100.00;100209.63;5041194;28;20167;-86
2020/12/13 02:27:45;;;;;;;99.03;35.10;;;;;;;6.21;100.00;100207.78;5045087;28;20056;-86
2020/12/13 02:30:10;;;;;;;104.10;35.63;;;;;;;6.20;100.00;100218.59;5042942;28;20033;-86
2020/12/13 02:32:36;;;;;;;99.75;32.53;;;;;;;6.18;100.00;100223.22;5039946;28;20120;-86
2020/12/13 02:35:04;;;;;;;114.38;37.60;;;;;;;6.20;100.00;100229.25;5048199;28;20044;-85
2020/12/13 02:37:29;;;;;;;106.60;34.65;;;;;;;6.19;100.00;100239.09;5038436;28;20119;-86
2020/12/13 02:39:54;;;;;;;97.68;36.00;;;;;;;6.16;100.00;100244.72;5051418;28;20098;-86
2020/12/13 02:42:20;;;;;;;100.63;34.30;;;;;;;6.17;100.00;100242.88;5048339;28;20071;-85
2020/12/13 02:44:45;;;;;;;101.43;34.03;;;;;;;6.16;100.00;100244.72;5041735;28;20037;-86
2020/12/13 02:47:11;;;;;;;110.50;35.40;;;;;;;6.14;100.00;100252.00;5051165;28;20417;-86
2020/12/13 02:49:41;;;;;;;102.93;35.17;;;;;;;6.14;100.00;100253.84;5044454;28;20087;-86
2020/12/13 02:52:07;;;;;;;115.15;35.72;;;;;;;6.08;100.00;100265.94;5037458;28;20032;-85
2020/12/13 02:54:32;;;;;;;110.07;37.00;;;;;;;6.08;100.00;100265.94;5046155;28;20041;-86
2020/12/13 02:56:58;;;;;;;111.32;35.97;;;;;;;6.09;100.00;100264.94;5063298;28;20148;-86
2020/12/13 02:59:23;;;;;;;110.15;32.40;;;;;;;6.03;100.00;100266.34;5031494;28;20111;-85
2020/12/13 03:01:48;;;;;;;107.38;33.85;;;;;;;6.02;100.00;100261.19;5046176;28;20041;-86
2020/12/13 03:04:14;;;;;;;118.70;37.42;;;;;;;6.01;100.00;100268.34;5015482;28;20033;-86
2020/12/13 03:06:39;;;;;;;116.55;38.38;;;;;;;6.01;100.00;100267.50;5012049;28;20033;-86
2020/12/13 03:09:05;;;;;;;115.13;37.92;;;;;;;6.00;100.00;100266.66;5045226;28;20057;-86
2020/12/13 03:11:31;;;;;;;113.80;35.63;;;;;;;5.96;100.00;100275.94;5042592;28;20037;-86
2020/12/13 03:13:56;;;;;;;110.15;33.85;;;;;;;5.92;100.00;100276.34;5043687;28;20048;-86
2020/12/13 03:16:22;;;;;;;106.60;35.03;;;;;;;5.91;100.00;100280.00;5040716;28;20028;-86
2020/12/13 03:18:47;;;;;;;112.05;35.45;;;;;;;5.91;100.00;100278.16;5026042;28;20094;-86
2020/12/13 03:21:13;;;;;;;102.35;34.13;;;;;;;5.92;100.00;100279.81;5041303;28;20057;-86
2020/12/13 03:23:38;;;;;;;112.00;36.28;;;;;;;5.92;100.00;100284.31;5048873;28;20512;-85
2020/12/13 03:26:04;;;;;;;116.18;35.65;;;;;;;5.89;100.00;100280.97;5029581;28;20573;-86
2020/12/13 03:28:29;;;;;;;123.10;38.30;;;;;;;5.91;100.00;100287.97;5037984;28;20493;-86
2020/12/13 03:30:55;;;;;;;118.35;37.67;;;;;;;5.90;100.00;100287.16;5048745;28;20051;-86
2020/12/13 03:33:20;;;;;;;120.00;35.75;;;;;;;5.90;100.00;100292.47;5021031;28;20045;-86
2020/12/13 03:35:45;;;;;;;123.80;39.20;;;;;;;5.88;100.00;100289.94;5038704;28;20085;-86
2020/12/13 03:38:11;;;;;;;124.72;36.67;;;;;;;5.88;100.00;100294.44;5038234;28;20061;-86
2020/12/13 03:40:36;;;;;;;133.77;39.05;;;;;;;5.86;100.00;100291.06;5060647;28;20041;-86
2020/12/13 03:43:02;;;;;;;121.65;37.17;;;;;;;5.84;100.00;100296.56;5046412;28;20497;-86
2020/12/13 03:45:27;;;;;;;119.82;36.17;;;;;;;5.83;100.00;100299.34;5021764;28;20033;-86
2020/12/13 03:47:53;;;;;;;125.13;38.28;;;;;;;5.76;100.00;100300.94;5036945;28;20425;-86
2020/12/13 03:50:18;;;;;;;129.32;39.42;;;;;;;5.78;100.00;100304.28;5053310;28;20139;-86
2020/12/13 03:52:43;;;;;;;119.57;37.28;;;;;;;5.74;100.00;100308.22;5049636;28;20207;-86
2020/12/13 03:55:09;;;;;;;107.57;35.85;;;;;;;5.73;100.00;100311.88;5059678;28;20049;-86
2020/12/13 03:57:34;;;;;;;129.70;39.42;;;;;;;5.76;100.00;100309.75;5042559;28;20040;-86
2020/12/13 03:59:59;;;;;;;115.88;36.65;;;;;;;5.76;100.00;100304.44;5029055;28;20076;-86
2020/12/13 04:02:25;;;;;;;135.20;39.60;;;;;;;5.75;100.00;100315.22;5042037;28;20044;-86
2020/12/13 04:04:50;;;;;;;128.68;39.63;;;;;;;5.76;100.00;100312.41;5045572;23;20034;-86
2020/12/13 04:07:15;;;;;;;129.27;38.35;;;;;;;5.76;100.00;100311.59;4991371;28;20176;-85
2020/12/13 04:09:41;;;;;;;119.38;37.28;;;;;;;5.76;100.00;100319.56;5002695;28;20038;-85
2020/12/13 04:12:06;;;;;;;130.23;38.95;;;;;;;5.78;100.00;100322.91;5006712;28;20044;-86
2020/12/13 04:14:32;;;;;;;135.32;40.28;;;;;;;5.79;100.00;100335.25;5022959;28;20037;-86
2020/12/13 04:16:57;;;;;;;146.50;42.05;;;;;;;5.79;100.00;100328.09;5005312;28;20042;-86
2020/12/13 04:19:22;;;;;;;141.15;40.05;;;;;;;5.77;100.00;100324.75;5001727;28;20046;-86
2020/12/13 04:21:48;;;;;;;136.95;38.53;;;;;;;5.78;100.00;100320.25;5000025;28;20065;-86
2020/12/13 04:24:13;;;;;;;131.30;38.25;;;;;;;5.77;100.00;100326.56;4988098;28;20056;-86
2020/12/13 04:26:39;;;;;;;143.75;40.63;;;;;;;5.77;100.00;100327.41;5010604;28;20052;-86
2020/12/13 04:29:04;;;;;;;139.30;39.85;;;;;;;5.76;100.00;100328.41;4993536;28;20038;-86
2020/12/13 04:31:29;;;;;;;136.60;37.35;;;;;;;5.77;100.00;100330.06;5012552;28;20129;-86
2020/12/13 04:33:55;;;;;;;146.60;41.33;;;;;;;5.77;100.00;100339.88;4975408;28;20421;-85
2020/12/13 04:36:20;;;;;;;142.82;41.20;;;;;;;5.77;100.00;100339.88;4978398;28;20410;-85
2020/12/13 04:38:46;;;;;;;157.88;39.17;;;;;;;5.79;100.00;100341.41;4995434;28;20034;-85
2020/12/13 04:41:11;;;;;;;155.02;42.63;;;;;;;5.81;100.00;100341.25;4991859;28;20080;-85
2020/12/13 04:43:38;;;;;;;148.00;39.97;;;;;;;5.81;100.00;100335.94;5007342;28;20048;-85
2020/12/13 04:46:04;;;;;;;158.93;44.20;;;;;;;5.83;100.00;100339.28;5010110;28;20052;-85
2020/12/13 04:48:29;;;;;;;159.80;44.65;;;;;;;5.84;100.00;100346.28;5011467;28;20038;-85
2020/12/13 04:50:57;;;;;;;163.73;43.97;;;;;;;5.82;100.00;100343.78;4962795;28;20060;-85
2020/12/13 04:53:27;;;;;;;176.60;43.65;;;;;;;5.81;100.00;100347.44;4991680;28;20446;-85
2020/12/13 04:55:57;;;;;;;206.85;44.53;;;;;;;5.80;100.00;100353.72;4993544;28;20299;-85
2020/12/13 04:58:25;;;;;;;248.02;51.83;;;;;;;5.80;100.00;100350.25;5011584;28;20504;-85
2020/12/13 05:00:54;;;;;;;262.65;53.67;;;;;;;5.82;100.00;100357.09;4994188;28;20180;-85
2020/12/13 05:03:21;;;;;;;235.98;45.33;;;;;;;5.80;100.00;100359.06;4996004;28;20038;-85
2020/12/13 05:05:47;;;;;;;250.77;47.80;;;;;;;5.79;100.00;100373.38;5019575;28;20032;-85
2020/12/13 05:08:12;;;;;;;311.80;56.00;;;;;;;5.80;100.00;100367.03;5019070;28;20125;-85
2020/12/13 05:10:40;;;;;;;336.67;59.70;;;;;;;5.82;100.00;100364.25;5011352;28;20042;-86
2020/12/13 05:13:09;;;;;;;406.10;60.63;;;;;;;5.83;100.00;100371.25;4994905;28;20675;-86
2020/12/13 05:15:36;;;;;;;297.40;53.15;;;;;;;5.83;100.00;100372.09;5015759;28;20096;-85
2020/12/13 05:18:02;;;;;;;307.98;54.25;;;;;;;5.82;100.00;100374.91;5001535;28;20041;-86
2020/12/13 05:20:28;;;;;;;441.15;64.88;;;;;;;5.85;100.00;100385.28;5013730;28;20034;-86
2020/12/13 05:22:58;;;;;;;393.58;62.70;;;;;;;5.84;100.00;100384.44;4997404;28;20030;-86
2020/12/13 05:25:34;;;;;;;;;;;;;;;5.85;100.00;100386.09;5004164;28;20050;-86
2020/12/13 05:28:05;;;;;;;466.08;66.93;;;;;;;5.77;100.00;100382.47;4993751;28;19925;-86
2020/12/13 05:30:39;;;;;;;394.67;60.53;;;;;;;5.75;100.00;100387.09;4958601;28;20065;-86
2020/12/13 05:33:07;;;;;;;371.50;62.10;;;;;;;5.77;100.00;100393.13;5000948;28;20034;-86
2020/12/13 05:35:33;;;;;;;377.25;59.25;;;;;;;5.78;100.00;100392.13;4983433;28;20046;-86
2020/12/13 05:38:06;;;;;;;444.75;64.30;;;;;;;5.78;100.00;100400.13;4994351;28;20429;-86
2020/12/13 05:40:32;;;;;;;470.73;70.22;;;;;;;5.79;100.00;100394.66;4975785;28;20042;-86
2020/12/13 05:43:05;;;;;;;442.50;69.15;;;;;;;5.79;100.00;100394.66;5012512;28;20420;-85
2020/12/13 05:48:24;;;;;;;374.08;65.03;;;;;;;5.80;100.00;100409.66;5007793;28;20053;-86
2020/12/13 05:53:26;;;;;;;291.20;57.60;;;;;;;5.79;100.00;100399.16;5026984;28;20045;-85
2020/12/13 05:55:53;;;;;;;326.35;61.42;;;;;;;5.80;100.00;100408.81;5013348;28;20034;-85
2020/12/13 05:58:20;;;;;;;255.30;56.40;;;;;;;5.81;100.00;100406.03;5009073;28;20049;-85
2020/12/13 06:00:46;;;;;;;254.60;57.97;;;;;;;5.83;100.00;100403.22;5007564;28;20076;-85
2020/12/13 06:03:14;;;;;;;235.70;57.35;;;;;;;5.83;100.00;100398.72;5020698;28;20049;-86
2020/12/13 06:05:42;;;;;;;258.13;57.15;;;;;;;5.83;100.00;100408.53;5006099;28;20038;-85
2020/12/13 06:08:13;;;;;;;281.83;57.13;;;;;;;5.83;100.00;100403.22;4998269;28;20041;-85
2020/12/13 06:10:42;;;;;;;281.17;56.80;;;;;;;5.84;100.00;100416.38;4996900;28;20398;-86
2020/12/13 06:13:08;;;;;;;262.67;56.92;;;;;;;5.84;100.00;100423.50;4997724;28;20049;-86
2020/12/13 06:15:35;;;;;;;334.25;59.47;;;;;;;5.83;100.00;100419.19;5006233;28;20049;-85
2020/12/13 06:18:03;;;;;;;255.80;57.28;;;;;;;5.83;100.00;100419.19;4978642;28;20042;-85
2020/12/13 06:20:28;;;;;;;266.13;63.50;;;;;;;5.84;100.00;100415.53;5013022;28;20527;-84
2020/12/13 06:22:55;;;;;;;256.25;55.90;;;;;;;5.84;100.00;100421.72;4986466;28;20124;-85
2020/12/13 06:25:21;;;;;;;283.63;60.05;;;;;;;5.85;100.00;100427.88;4999011;28;20066;-85
2020/12/13 06:27:49;;;;;;;284.73;57.80;;;;;;;5.85;100.00;100422.56;5008463;28;20038;-85
2020/12/13 06:30:15;;;;;;;251.52;54.55;;;;;;;5.85;100.00;100425.22;5005949;28;20046;-85
2020/12/13 06:32:42;;;;;;;291.23;57.38;;;;;;;5.82;100.00;100426.34;5006391;28;20034;-85
2020/12/13 06:35:08;;;;;;;224.77;51.65;;;;;;;5.83;100.00;100429.84;4973117;28;20045;-85
2020/12/13 06:37:37;;;;;;;236.88;53.88;;;;;;;5.84;100.00;100428.84;5003545;28;20045;-85
2020/12/13 06:40:05;;;;;;;241.23;53.30;;;;;;;5.83;100.00;100440.47;4993990;28;20120;-85
2020/12/13 06:42:37;;;;;;;226.88;51.90;;;;;;;5.85;100.00;100438.53;5009437;28;20428;-85
2020/12/13 06:45:05;;;;;;;229.05;53.65;;;;;;;5.84;100.00;100437.69;5010224;28;20034;-85
2020/12/13 06:47:31;;;;;;;237.55;56.53;;;;;;;5.83;100.00;100437.81;4998886;28;20525;-85
2020/12/13 06:49:56;;;;;;;241.07;55.35;;;;;;;5.83;100.00;100443.97;5005839;28;20074;-84
2020/12/13 06:52:33;;;;;;;257.45;58.63;;;;;;;5.84;100.00;100439.50;4989205;28;20046;-85
2020/12/13 06:55:06;;;;;;;260.23;58.67;;;;;;;5.84;100.00;100443.03;5010573;28;20046;-85
2020/12/13 06:57:35;;;;;;;281.83;66.32;;;;;;;5.85;100.00;100443.84;4974174;28;20048;-85
2020/12/13 07:00:08;;;;;;;309.30;68.10;;;;;;;5.86;100.00;100449.03;4991343;28;20443;-85
2020/12/13 07:02:44;;;;;;;337.17;71.03;;;;;;;5.87;100.00;100450.72;4976376;28;20112;-85
2020/12/13 07:05:09;;;;;;;341.00;79.85;;;;;;;5.87;100.00;100452.56;4989109;28;20103;-85
2020/12/13 07:07:39;;;;;;;490.02;83.78;;;;;;;5.89;100.00;100447.91;5008515;28;20706;-85
2020/12/13 07:10:08;;;;;;;394.83;75.05;;;;;;;5.90;100.00;100446.94;5003080;28;20053;-85
2020/12/13 07:12:34;;;;;;;;;;;;;;;5.92;100.00;100455.59;5007093;28;20041;-85
2020/12/13 07:15:00;;;;;;;465.00;73.45;;;;;;;5.84;100.00;100458.13;4998314;28;19917;-85
2020/12/13 07:17:32;;;;;;;570.33;78.25;;;;;;;5.84;100.00;100458.13;4991362;28;20060;-86
2020/12/13 07:20:00;;;;;;;570.63;81.53;;;;;;;5.86;100.00;100464.16;4976156;28;20046;-85
2020/12/13 07:22:32;;;;;;;514.58;76.18;;;;;;;5.87;100.00;100458.72;5004649;28;20041;-85
2020/12/13 07:24:58;;;;;;;447.02;72.07;;;;;;;5.88;100.00;100471.03;4986241;28;20081;-85
2020/12/13 07:27:25;;;;;;;485.88;75.22;;;;;;;5.91;100.00;100466.41;4986716;28;20084;-85
2020/12/13 07:29:52;;;;;;;580.63;85.10;;;;;;;5.91;100.00;100469.09;5001995;28;20053;-85
2020/12/13 07:32:18;;;;;;;591.55;88.03;;;;;;;5.93;100.00;100472.41;5008263;28;20115;-85
2020/12/13 07:34:45;;;;;;;513.10;85.57;;;;;;;5.93;100.00;100477.75;4982477;28;20037;-85
2020/12/13 07:37:14;;;;;;;437.75;85.05;;;;;;;5.94;100.00;100475.00;4993377;28;20448;-85
2020/12/13 07:39:51;;;;;;;477.65;86.05;;;;;;;5.96;100.00;100478.34;4959299;28;20069;-85
2020/12/13 07:42:17;;;;;;;478.95;89.57;;;;;;;5.96;100.00;100478.34;4919437;28;20082;-85
2020/12/13 07:44:42;;;;;;;421.42;88.47;;;;;;;6.00;100.00;100485.06;4971530;28;20138;-85
2020/12/13 07:47:08;;;;;;;351.85;78.38;;;;;;;6.03;100.00;100486.59;4954989;28;20081;-86
2020/12/13 07:49:33;;;;;;;384.77;90.50;;;;;;;6.07;100.00;100494.19;4955938;28;20521;-86
2020/12/13 07:51:59;;;;;;;352.83;84.95;;;;;;;6.13;100.00;100494.56;4957088;28;20038;-86
2020/12/13 07:54:29;;;;;;;302.75;70.38;;;;;;;6.18;100.00;100495.00;4968193;28;20238;-87
2020/12/13 07:56:59;;;;;;;335.05;78.75;;;;;;;6.21;100.00;100490.22;4962717;28;20042;-85
2020/12/13 07:59:26;;;;;;;310.50;71.47;;;;;;;6.28;100.00;100495.84;4915569;28;20048;-86
2020/12/13 08:01:57;;;;;;;280.05;72.00;;;;;;;6.36;100.00;100506.63;4957128;28;20035;-88
2020/12/13 08:04:36;;;;;;;287.17;67.30;;;;;;;6.41;100.00;100498.16;4965572;28;20259;-86
2020/12/13 08:07:04;;;;;;;296.05;69.80;;;;;;;6.44;100.00;100501.38;4959262;28;20137;-85
2020/12/13 08:09:30;;;;;;;280.77;71.55;;;;;;;6.48;100.00;100499.28;4934954;28;20102;-86
2020/12/13 08:11:56;;;;;;;256.30;64.43;;;;;;;6.50;100.00;100506.16;4936644;28;20042;-86
2020/12/13 08:14:23;;;;;;;274.83;67.95;;;;;;;6.55;100.00;100500.38;4975045;28;20049;-85
2020/12/13 08:16:54;;;;;;;256.52;68.43;;;;;;;6.60;100.00;100505.28;4979546;28;20641;-86
2020/12/13 08:19:25;;;;;;;258.15;63.30;;;;;;;6.62;100.00;100501.50;4984508;28;20096;-86
2020/12/13 08:22:00;;;;;;;260.15;65.18;;;;;;;6.64;100.00;100501.34;4997036;28;20053;-85
2020/12/13 08:24:27;;;;;;;256.58;69.97;;;;;;;6.68;100.00;100516.91;4963502;28;20487;-87
2020/12/13 08:26:59;;;;;;;241.18;65.38;;;;;;;6.70;100.00;100516.75;4946008;28;20039;-87
2020/12/13 08:29:27;;;;;;;239.88;65.40;;;;;;;6.70;100.00;100519.41;4965978;28;20085;-87
2020/12/13 08:31:55;;;;;;;238.38;61.15;;;;;;;6.73;100.00;100522.66;4941428;28;20039;-86
2020/12/13 08:34:30;;;;;;;244.52;65.05;;;;;;;6.74;100.00;100526.97;4941633;28;21406;-86
2020/12/13 08:37:01;;;;;;;234.95;61.63;;;;;;;6.76;100.00;100533.03;4925770;29;20035;-86
2020/12/13 08:39:31;;;;;;;229.40;56.72;;;;;;;6.78;100.00;100532.84;4934068;28;20190;-86
2020/12/13 08:41:58;;;;;;;210.23;53.80;;;;;;;6.79;100.00;100539.88;4926162;28;20315;-86
2020/12/13 08:44:32;;;;;;;217.85;54.83;;;;;;;6.80;100.00;100538.06;4884025;29;20100;-86
2020/12/13 08:47:01;;;;;;;201.05;53.05;;;;;;;6.82;100.00;100538.72;4873544;29;20437;-86
2020/12/13 08:49:30;;;;;;;198.25;54.80;;;;;;;6.83;100.00;100541.28;4872800;29;20082;-84
2020/12/13 08:51:56;;;;;;;193.70;53.70;;;;;;;6.85;100.00;100546.44;4855138;29;21350;-85
2020/12/13 08:54:21;;;;;;;189.00;50.88;;;;;;;6.85;100.00;100547.31;4830808;29;20056;-87
2020/12/13 08:56:52;;;;;;;190.32;51.22;;;;;;;6.86;100.00;100556.97;4851701;29;20045;-87
2020/12/13 08:59:22;;;;;;;191.52;48.50;;;;;;;6.86;100.00;100556.97;4774631;29;20047;-85
2020/12/13 09:01:54;;;;;;;187.75;51.42;;;;;;;6.87;100.00;100563.97;4779785;29;20051;-86
2020/12/13 09:04:23;;;;;;;164.18;44.92;;;;;;;6.87;100.00;100563.97;4801864;29;20067;-86
2020/12/13 09:06:57;;;;;;;175.37;47.37;;;;;;;6.88;100.00;100564.84;4770765;29;20050;-85
2020/12/13 09:09:28;;;;;;;166.45;49.80;;;;;;;6.89;100.00;100561.19;4786724;29;20046;-85
2020/12/13 09:11:53;;;;;;;163.68;46.92;;;;;;;6.89;100.00;100570.03;4831861;29;20119;-86
2020/12/13 09:14:54;;;;;;;157.32;42.55;;;;;;;6.90;100.00;100576.19;4893799;29;20538;-87
2020/12/13 09:17:23;;;;;;;156.35;42.92;;;;;;;6.91;100.00;100576.06;4876174;29;20563;-85
2020/12/13 09:19:52;;;;;;;;;;;;;;;6.90;100.00;100574.34;4876107;29;20044;-87
2020/12/13 09:22:19;;;;;;;;;;;;;;;6.86;100.00;100580.97;4883936;29;19971;-88
2020/12/13 09:24:44;;;;;;;154.93;43.97;;;;;;;6.81;100.00;100587.75;4885500;29;19915;-84
2020/12/13 09:27:18;;;;;;;147.80;46.40;;;;;;;6.84;100.00;100590.94;4902788;28;20046;-85
2020/12/13 09:29:44;;;;;;;139.90;44.17;;;;;;;6.87;100.00;100588.00;4897866;29;20532;-86
2020/12/13 09:32:33;;;;;;;142.55;44.25;;;;;;;6.90;100.00;100600.19;4875538;29;20036;-87
2020/12/13 09:55:58;;;;;;;106.50;34.75;;;;;;;6.90;100.00;100625.03;5008996;28;20076;-88
2020/12/13 09:59:07;;;;;;;106.57;36.85;;;;;;;6.89;100.00;100623.38;5002554;28;20540;-86
2020/12/13 10:10:13;;;;;;;81.90;32.08;;;;;;;6.92;100.00;100625.75;4998062;28;20052;-83
2020/12/13 10:12:54;;;;;;;79.15;29.83;;;;;;;6.94;100.00;100622.94;5002577;28;20137;-87
2020/12/13 10:15:19;;;;;;;68.43;29.02;;;;;;;6.95;100.00;100628.13;4973205;28;20046;-85
2020/12/13 10:17:44;;;;;;;64.38;27.25;;;;;;;6.96;100.00;100634.28;4988271;28;20539;-85
2020/12/13 10:20:10;;;;;;;64.47;28.05;;;;;;;6.96;100.00;100631.63;4996769;28;20504;-87
2020/12/13 10:22:35;;;;;;;68.78;28.95;;;;;;;6.98;100.00;100629.66;5007535;28;20500;-86
2020/12/13 10:25:01;;;;;;;63.55;28.92;;;;;;;6.98;100.00;100635.00;4989342;28;20175;-83
2020/12/13 10:27:26;;;;;;;68.72;28.77;;;;;;;6.99;100.00;100634.00;5009861;28;20045;-82
2020/12/13 10:29:51;;;;;;;68.30;30.38;;;;;;;6.99;100.00;100637.53;4974518;28;20125;-83
2020/12/13 10:32:17;;;;;;;64.07;30.17;;;;;;;6.99;100.00;100632.22;4987496;28;20038;-85
2020/12/13 10:34:42;;;;;;;66.47;29.40;;;;;;;6.99;100.00;100626.00;4989646;28;20065;-85
2020/12/13 10:37:07;;;;;;;63.95;31.05;;;;;;;7.00;100.00;100635.72;4992839;28;20771;-85
2020/12/13 10:39:33;;;;;;;63.30;31.08;;;;;;;7.02;100.00;100641.75;5003258;28;20042;-88
2020/12/13 10:41:58;;;;;;;66.03;32.72;;;;;;;7.04;100.00;100638.91;5005796;28;20034;-87
2020/12/13 10:44:24;;;;;;;66.50;31.05;;;;;;;7.02;100.00;100636.41;4992806;28;20038;-83
2020/12/13 10:46:49;;;;;;;69.63;34.15;;;;;;;7.04;100.00;100633.59;4977278;28;20061;-83
2020/12/13 10:49:15;;;;;;;72.18;33.42;;;;;;;7.04;100.00;100638.91;4991803;28;20042;-84
2020/12/13 10:51:41;;;;;;;70.75;33.97;;;;;;;7.04;100.00;100634.41;5001399;28;20503;-82
2020/12/13 10:54:06;;;;;;;69.00;34.25;;;;;;;7.04;100.00;100629.09;5002586;28;20048;-83
2020/12/13 10:56:31;;;;;;;75.05;36.50;;;;;;;7.03;100.00;100630.09;5003954;28;20496;-82
2020/12/13 10:58:57;;;;;;;72.80;36.13;;;;;;;7.03;100.00;100632.75;4990172;28;20513;-82
2020/12/13 11:01:22;;;;;;;72.07;34.75;;;;;;;7.03;100.00;100637.25;5007446;28;20049;-82
2020/12/13 11:03:48;;;;;;;73.13;33.90;;;;;;;7.03;100.00;100637.25;4975940;28;20042;-84
2020/12/13 11:06:13;;;;;;;71.28;33.42;;;;;;;7.01;100.00;100627.53;5004612;28;20049;-85
2020/12/13 11:08:39;;;;;;;67.38;33.63;;;;;;;7.01;100.00;100627.53;4988923;28;20121;-85
2020/12/13 11:11:05;;;;;;;68.35;34.97;;;;;;;7.02;100.00;100636.41;4986862;28;20469;-84
2020/12/13 11:13:31;;;;;;;66.45;35.05;;;;;;;7.01;100.00;100635.53;5006540;28;20057;-85
2020/12/13 11:15:56;;;;;;;61.75;30.50;;;;;;;7.01;100.00;100632.03;5009657;28;20123;-83
2020/12/13 11:18:22;;;;;;;60.80;29.65;;;;;;;7.01;100.00;100630.22;4983825;28;20065;-87
2020/12/13 11:20:47;;;;;;;61.63;33.50;;;;;;;7.00;100.00;100633.88;4989717;28;20044;-85
2020/12/13 11:23:12;;;;;;;55.92;31.45;;;;;;;6.98;100.00;100627.84;4976348;28;20057;-82
2020/12/13 11:25:38;;;;;;;63.08;32.80;;;;;;;6.99;100.00;100632.22;4991626;28;20480;-87
2020/12/13 11:28:05;;;;;;;60.55;32.35;;;;;;;7.02;100.00;100633.75;4991752;28;20045;-83
2020/12/13 11:30:31;;;;;;;57.72;28.35;;;;;;;7.03;100.00;100634.59;5002723;28;20046;-82
2020/12/13 11:32:56;;;;;;;63.03;32.85;;;;;;;7.04;100.00;100637.09;4998878;28;20080;-88
2020/12/13 11:35:22;;;;;;;58.40;30.55;;;;;;;7.05;100.00;100629.91;4987082;28;20065;-82
2020/12/13 11:37:47;;;;;;;53.85;28.80;;;;;;;7.05;100.00;100638.78;4985565;28;20486;-84
2020/12/13 11:40:13;;;;;;;57.28;29.60;;;;;;;7.04;100.00;100638.91;4973902;28;20879;-81